Time;durP1;ratioP1;P1;durP2;ratioP2;P2;SDS_P1;SDS_P2;PMS_P1;PMS_P2;Temp;Humidity;BMP_temperature;BMP_pressure;BME280_temperature;BME280_humidity;BME280_pressure;Samples;Min_cycle;Max_cycle;Signal;HPM_P1;HPM_P2
2023/07/14 00:01:54;;;;;;;3.30;2.30;;;18.60;78.50;;;;;;5062502;28;20514;-70
2023/07/14 00:04:28;;;;;;;3.22;2.60;;;18.60;78.60;;;;;;5071422;28;20416;-71
2023/07/14 00:06:55;;;;;;;3.80;2.47;;;18.50;78.90;;;;;;5071307;28;20750;-70
2023/07/14 00:09:25;;;;;;;3.65;2.50;;;18.50;79.30;;;;;;5070480;28;20435;-71
2023/07/14 00:11:52;;;;;;;3.10;2.40;;;18.50;79.30;;;;;;5062053;28;20459;-69
2023/07/14 00:14:20;;;;;;;5.10;2.60;;;18.40;79.50;;;;;;5070963;28;20934;-71
2023/07/14 00:16:47;;;;;;;3.65;2.50;;;18.40;79.80;;;;;;5061352;28;20428;-69
2023/07/14 00:19:15;;;;;;;5.35;2.90;;;18.40;80.00;;;;;;5070236;28;20892;-70
2023/07/14 00:21:42;;;;;;;4.25;2.70;;;18.40;80.50;;;;;;5071254;28;20489;-70
2023/07/14 00:24:12;;;;;;;4.78;2.50;;;18.30;80.60;;;;;;5070577;28;20911;-70
2023/07/14 00:26:41;;;;;;;3.80;2.50;;;18.30;81.00;;;;;;5069440;28;20565;-69
2023/07/14 00:29:32;;;;;;;4.90;2.70;;;18.30;81.00;;;;;;5063466;28;20541;-70
2023/07/14 00:31:59;;;;;;;5.40;2.60;;;18.20;81.30;;;;;;5060170;28;20455;-70
2023/07/14 00:34:25;;;;;;;3.15;2.35;;;18.20;81.30;;;;;;5070633;28;20416;-70
2023/07/14 00:36:52;;;;;;;4.00;2.20;;;18.20;81.70;;;;;;5070484;28;20430;-70
2023/07/14 00:39:19;;;;;;;3.28;2.28;;;18.20;81.60;;;;;;5069980;28;20445;-69
2023/07/14 00:41:46;;;;;;;3.55;2.60;;;18.20;81.30;;;;;;5070783;28;20420;-69
2023/07/14 00:44:14;;;;;;;5.20;2.40;;;18.10;81.70;;;;;;5069520;28;20436;-70
2023/07/14 00:46:44;;;;;;;5.10;2.30;;;18.20;81.90;;;;;;5062598;28;20431;-69
2023/07/14 00:49:15;;;;;;;4.63;2.60;;;18.20;82.10;;;;;;5064695;28;20900;-70
2023/07/14 00:51:42;;;;;;;4.32;2.20;;;18.10;82.50;;;;;;5050211;28;20444;-70
2023/07/14 00:54:26;;;;;;;3.00;2.22;;;18.10;82.40;;;;;;5050156;28;20780;-71
2023/07/14 00:56:54;;;;;;;5.38;2.70;;;18.20;82.80;;;;;;5050071;28;20429;-69
2023/07/14 00:59:22;;;;;;;3.45;2.53;;;18.20;82.70;;;;;;5049877;28;20535;-70
2023/07/14 01:02:20;;;;;;;3.55;2.50;;;18.10;82.90;;;;;;5061348;28;20522;-71
2023/07/14 01:04:51;;;;;;;4.20;2.20;;;18.10;83.00;;;;;;5051763;28;20409;-70
2023/07/14 01:07:20;;;;;;;4.32;2.80;;;18.10;83.30;;;;;;5050493;28;20421;-70
2023/07/14 01:09:48;;;;;;;3.72;2.40;;;18.10;82.60;;;;;;5049403;28;20421;-70
2023/07/14 01:12:20;;;;;;;3.60;2.90;;;18.10;83.00;;;;;;5050445;28;20417;-70
2023/07/14 01:14:49;;;;;;;4.00;2.40;;;18.10;82.70;;;;;;5055374;28;20913;-71
2023/07/14 01:17:17;;;;;;;3.28;2.20;;;18.10;82.80;;;;;;5063773;28;20425;-70
2023/07/14 01:19:49;;;;;;;5.60;2.60;;;18.00;82.70;;;;;;5049646;28;20439;-70
2023/07/14 01:22:22;;;;;;;4.22;2.75;;;18.00;83.00;;;;;;5050018;28;20428;-70
2023/07/14 01:24:54;;;;;;;3.65;2.30;;;18.00;83.20;;;;;;5049457;28;20405;-70
2023/07/14 01:27:24;;;;;;;4.05;2.70;;;17.90;82.90;;;;;;5049811;28;20883;-70
2023/07/14 01:29:51;;;;;;;4.05;2.67;;;17.80;83.30;;;;;;5052317;28;20429;-71
2023/07/14 01:32:20;;;;;;;4.07;2.92;;;17.80;83.50;;;;;;5069954;28;20423;-69
2023/07/14 01:34:47;;;;;;;3.50;2.60;;;17.80;83.30;;;;;;5069564;28;20412;-70
2023/07/14 01:37:18;;;;;;;4.28;2.42;;;17.80;83.60;;;;;;5060282;28;20521;-69
2023/07/14 01:39:45;;;;;;;4.25;2.50;;;17.80;83.70;;;;;;5068587;28;20419;-70
2023/07/14 01:42:11;;;;;;;3.83;2.67;;;17.70;83.70;;;;;;5069578;28;20426;-69
2023/07/14 01:44:40;;;;;;;3.10;2.70;;;17.70;83.90;;;;;;5068391;28;20488;-69
2023/07/14 01:47:11;;;;;;;3.90;2.70;;;17.70;84.40;;;;;;5062688;28;20849;-69
2023/07/14 01:49:42;;;;;;;3.28;2.30;;;17.70;84.40;;;;;;5068320;28;20420;-71
2023/07/14 01:52:15;;;;;;;5.43;2.80;;;17.70;84.20;;;;;;5056576;28;20765;-69
2023/07/14 01:54:46;;;;;;;5.72;2.90;;;17.70;84.20;;;;;;5066744;28;20774;-70
2023/07/14 01:57:17;;;;;;;4.65;2.78;;;17.70;84.40;;;;;;5069360;28;20423;-69
2023/07/14 01:59:48;;;;;;;4.80;2.60;;;17.60;84.40;;;;;;5066303;28;20862;-70
2023/07/14 02:02:22;;;;;;;3.45;2.78;;;17.60;84.30;;;;;;5063320;28;20763;-69
2023/07/14 02:04:50;;;;;;;4.82;2.60;;;17.60;85.00;;;;;;5069507;28;20514;-69
2023/07/14 02:07:17;;;;;;;4.40;2.58;;;17.60;85.40;;;;;;5069557;28;20430;-70
2023/07/14 02:09:45;;;;;;;3.38;2.53;;;17.50;85.60;;;;;;5068577;28;20416;-70
2023/07/14 02:12:16;;;;;;;4.28;2.70;;;17.50;85.90;;;;;;5069364;28;20898;-69
2023/07/14 02:14:48;;;;;;;4.67;3.00;;;17.50;86.50;;;;;;5060237;28;20524;-71
2023/07/14 02:17:24;;;;;;;3.88;3.03;;;17.50;86.40;;;;;;5069105;28;20505;-69
2023/07/14 02:19:52;;;;;;;4.10;2.70;;;17.50;86.60;;;;;;5068702;28;20435;-69
2023/07/14 02:22:19;;;;;;;6.90;3.00;;;17.50;86.90;;;;;;5069056;28;20407;-70
2023/07/14 02:24:47;;;;;;;4.93;3.20;;;17.40;87.10;;;;;;5068612;28;20439;-71
2023/07/14 02:27:14;;;;;;;3.90;2.85;;;17.40;88.00;;;;;;5069155;28;20412;-69
2023/07/14 02:29:41;;;;;;;4.70;2.97;;;17.40;88.00;;;;;;5066736;28;20430;-69
2023/07/14 02:32:18;;;;;;;3.20;2.75;;;17.30;88.40;;;;;;5061428;28;20412;-69
2023/07/14 02:34:53;;;;;;;3.47;2.70;;;17.30;88.80;;;;;;5068888;28;20443;-69
2023/07/14 02:37:43;;;;;;;4.97;2.70;;;17.30;89.30;;;;;;5069039;28;20420;-69
2023/07/14 02:40:11;;;;;;;5.00;3.05;;;17.30;89.70;;;;;;5068316;28;20502;-69
2023/07/14 02:42:38;;;;;;;3.65;2.90;;;17.20;90.00;;;;;;5068950;28;20419;-70
2023/07/14 02:45:07;;;;;;;5.35;2.67;;;17.20;89.80;;;;;;5059343;28;20431;-69
2023/07/14 02:47:39;;;;;;;4.40;3.10;;;17.20;89.50;;;;;;5060219;28;20440;-70
2023/07/14 02:50:07;;;;;;;4.43;2.67;;;17.20;89.50;;;;;;5061150;28;20468;-69
2023/07/14 02:52:34;;;;;;;5.57;3.08;;;17.20;88.90;;;;;;5069267;28;20517;-69
2023/07/14 02:55:00;;;;;;;3.58;2.60;;;17.20;89.20;;;;;;5069751;28;20418;-70
2023/07/14 02:57:27;;;;;;;3.83;2.90;;;17.20;89.30;;;;;;5072846;28;20431;-69
2023/07/14 02:59:54;;;;;;;5.30;3.07;;;17.20;89.20;;;;;;5063312;28;20440;-69
2023/07/14 03:02:21;;;;;;;2.88;2.45;;;17.10;88.60;;;;;;5073229;28;20477;-69
2023/07/14 03:04:49;;;;;;;4.60;3.25;;;17.10;89.10;;;;;;5072498;28;20439;-70
2023/07/14 03:07:15;;;;;;;5.63;2.80;;;17.10;90.00;;;;;;5073096;28;20761;-69
2023/07/14 03:09:42;;;;;;;4.80;2.92;;;17.10;90.30;;;;;;5071982;28;20421;-70
2023/07/14 03:12:10;;;;;;;3.17;2.80;;;17.10;90.70;;;;;;5073040;28;20766;-70
2023/07/14 03:14:36;;;;;;;3.67;2.92;;;17.00;91.00;;;;;;5062841;28;20807;-70
2023/07/14 03:17:03;;;;;;;4.20;2.80;;;17.00;91.40;;;;;;5072485;28;20424;-69
2023/07/14 03:19:30;;;;;;;3.20;2.90;;;17.00;91.60;;;;;;5071886;28;20423;-70
2023/07/14 03:21:58;;;;;;;4.63;2.90;;;16.90;91.40;;;;;;5072768;28;20882;-69
2023/07/14 03:24:25;;;;;;;5.35;3.30;;;16.90;91.60;;;;;;5072277;28;20414;-69
2023/07/14 03:26:51;;;;;;;3.80;3.20;;;16.90;91.50;;;;;;5072250;28;20937;-69
2023/07/14 03:29:18;;;;;;;4.20;3.00;;;16.80;91.70;;;;;;5065100;28;20909;-70
2023/07/14 03:31:45;;;;;;;4.25;3.55;;;16.80;91.60;;;;;;5064250;28;20419;-69
2023/07/14 03:34:11;;;;;;;3.70;2.70;;;16.80;91.70;;;;;;5072635;28;20430;-70
2023/07/14 03:36:38;;;;;;;5.05;3.10;;;16.70;92.00;;;;;;5072640;28;20434;-70
2023/07/14 03:39:24;;;;;;;4.30;3.30;;;16.70;92.00;;;;;;5071309;28;20426;-69
2023/07/14 03:41:51;;;;;;;4.70;3.20;;;16.70;92.10;;;;;;5072152;28;20411;-69
2023/07/14 03:44:19;;;;;;;3.20;2.88;;;16.70;92.30;;;;;;5057439;28;20432;-69
2023/07/14 03:46:45;;;;;;;4.65;3.00;;;16.70;92.30;;;;;;5070183;28;20882;-69
2023/07/14 03:49:13;;;;;;;5.90;3.10;;;16.70;92.40;;;;;;5071363;28;20420;-69
2023/07/14 03:51:40;;;;;;;4.15;3.35;;;16.60;92.60;;;;;;5071973;28;20419;-69
2023/07/14 03:54:07;;;;;;;4.57;2.75;;;16.60;92.70;;;;;;5071798;28;20423;-69
2023/07/14 03:56:35;;;;;;;5.90;3.15;;;16.60;92.60;;;;;;5071984;28;20414;-69
2023/07/14 03:59:02;;;;;;;4.35;2.65;;;16.60;92.60;;;;;;5061981;28;20863;-69
2023/07/14 04:01:29;;;;;;;3.60;2.85;;;16.60;92.50;;;;;;5071534;28;20522;-69
2023/07/14 04:03:56;;;;;;;4.57;2.80;;;16.60;92.40;;;;;;5071727;28;20499;-69
2023/07/14 04:06:23;;;;;;;4.20;3.00;;;16.60;92.70;;;;;;5071202;28;20506;-69
2023/07/14 04:08:52;;;;;;;4.78;3.17;;;16.60;92.90;;;;;;5067369;28;20431;-70
2023/07/14 04:11:18;;;;;;;3.80;3.10;;;16.60;92.50;;;;;;5065703;28;20444;-69
2023/07/14 04:13:46;;;;;;;4.93;2.90;;;16.50;92.50;;;;;;5069890;28;20427;-69
2023/07/14 04:16:13;;;;;;;4.68;2.88;;;16.50;92.40;;;;;;5062568;28;20519;-69
2023/07/14 04:18:40;;;;;;;3.63;3.23;;;16.50;92.40;;;;;;5071544;28;20520;-69
2023/07/14 04:21:09;;;;;;;3.92;2.80;;;16.50;92.70;;;;;;5061793;28;20914;-69
2023/07/14 04:23:36;;;;;;;3.75;3.20;;;16.60;92.40;;;;;;5071176;28;20423;-70
2023/07/14 04:26:04;;;;;;;4.30;3.38;;;16.50;92.40;;;;;;5071904;28;20407;-70
2023/07/14 04:28:30;;;;;;;3.55;3.00;;;16.50;92.60;;;;;;5070333;28;20439;-69
2023/07/14 04:31:00;;;;;;;4.85;3.10;;;16.50;92.60;;;;;;5062591;28;20416;-69
2023/07/14 04:33:27;;;;;;;3.97;3.03;;;16.50;92.80;;;;;;5070924;28;20606;-69
2023/07/14 04:35:55;;;;;;;3.88;3.15;;;16.50;92.50;;;;;;5065015;28;20433;-69
2023/07/14 04:38:23;;;;;;;3.78;2.80;;;16.50;92.60;;;;;;5064496;28;20423;-69
2023/07/14 04:40:51;;;;;;;5.35;3.30;;;16.50;92.40;;;;;;5062078;28;20415;-69
2023/07/14 04:43:19;;;;;;;5.63;3.30;;;16.50;92.40;;;;;;5069707;28;20423;-68
2023/07/14 04:45:47;;;;;;;5.22;2.92;;;16.50;92.40;;;;;;5059017;28;20432;-69
2023/07/14 04:48:17;;;;;;;5.05;3.40;;;16.50;92.50;;;;;;5070864;28;20419;-68
2023/07/14 04:50:45;;;;;;;6.13;3.10;;;16.50;92.40;;;;;;5070362;28;20874;-70
2023/07/14 04:53:13;;;;;;;5.57;3.63;;;16.50;92.00;;;;;;5071092;28;20458;-70
2023/07/14 04:55:41;;;;;;;5.68;3.20;;;16.50;92.10;;;;;;5070312;28;20751;-69
2023/07/14 04:58:08;;;;;;;4.80;2.80;;;16.60;92.20;;;;;;5070599;28;20462;-70
2023/07/14 05:00:37;;;;;;;4.25;3.00;;;16.60;92.00;;;;;;5058825;28;20448;-69
2023/07/14 05:03:04;;;;;;;4.50;3.20;;;16.50;91.90;;;;;;5062890;28;20441;-70
2023/07/14 05:05:33;;;;;;;4.38;3.15;;;16.60;91.80;;;;;;5070572;28;20419;-69
2023/07/14 05:08:00;;;;;;;4.65;3.03;;;16.60;91.70;;;;;;5070585;28;20416;-69
2023/07/14 05:10:28;;;;;;;3.45;2.97;;;16.70;92.10;;;;;;5069655;28;20526;-70
2023/07/14 05:12:56;;;;;;;4.88;3.33;;;16.60;91.50;;;;;;5070722;28;20411;-70
2023/07/14 05:15:25;;;;;;;6.80;3.53;;;16.70;91.20;;;;;;5060912;28;20438;-70
2023/07/14 05:20:30;;;;;;;3.95;3.13;;;16.80;91.80;;;;;;5083586;28;20519;-66
2023/07/14 05:22:58;;;;;;;4.80;3.10;;;16.80;91.50;;;;;;5094145;22;20430;-66
2023/07/14 05:25:24;;;;;;;3.67;3.38;;;16.80;91.50;;;;;;5088131;28;20926;-66
2023/07/14 05:27:51;;;;;;;4.95;3.30;;;16.80;91.10;;;;;;5087885;28;21060;-66
2023/07/14 05:30:21;;;;;;;4.88;3.28;;;16.90;91.40;;;;;;5079341;28;20441;-67
2023/07/14 05:32:49;;;;;;;5.20;3.10;;;16.90;91.30;;;;;;5070038;28;20420;-66
2023/07/14 05:35:17;;;;;;;3.60;3.30;;;16.90;91.00;;;;;;5068791;28;20415;-66
2023/07/14 05:37:45;;;;;;;5.43;3.40;;;17.00;90.90;;;;;;5068614;28;20886;-66
2023/07/14 05:40:14;;;;;;;4.20;3.20;;;17.00;90.70;;;;;;5067599;28;20918;-66
2023/07/14 05:42:42;;;;;;;3.40;3.10;;;17.10;90.70;;;;;;5068828;28;20423;-67
2023/07/14 05:45:10;;;;;;;5.18;3.50;;;17.10;89.80;;;;;;5077534;28;20444;-67
2023/07/14 05:47:39;;;;;;;4.97;2.90;;;17.20;89.90;;;;;;5079729;28;21038;-67
2023/07/14 05:50:07;;;;;;;4.07;3.00;;;17.20;89.60;;;;;;5067846;28;20430;-66
2023/07/14 05:52:35;;;;;;;4.35;3.20;;;17.30;89.10;;;;;;5068288;28;20427;-67
2023/07/14 05:55:03;;;;;;;6.30;3.40;;;17.30;88.80;;;;;;5068083;28;20416;-66
2023/07/14 05:57:32;;;;;;;4.18;3.10;;;17.40;89.00;;;;;;5068651;28;20422;-67
2023/07/14 05:59:59;;;;;;;4.40;2.77;;;17.50;87.20;;;;;;5079881;28;20421;-66
2023/07/14 06:02:26;;;;;;;4.60;3.40;;;17.50;87.70;;;;;;5069418;28;20415;-66
2023/07/14 06:04:53;;;;;;;4.47;3.17;;;17.50;86.40;;;;;;5068360;28;20414;-67
2023/07/14 06:07:20;;;;;;;5.15;3.03;;;17.60;85.40;;;;;;5068433;28;20416;-66
2023/07/14 06:09:46;;;;;;;4.03;3.10;;;17.60;85.60;;;;;;5067577;28;20411;-66
2023/07/14 06:12:13;;;;;;;3.85;3.10;;;17.60;85.50;;;;;;5068617;28;20414;-66
2023/07/14 06:14:42;;;;;;;5.22;2.95;;;17.70;85.70;;;;;;5075927;28;20437;-66
2023/07/14 06:17:09;;;;;;;7.28;3.10;;;17.70;84.70;;;;;;5075438;28;20502;-66
2023/07/14 06:19:36;;;;;;;3.80;2.90;;;17.80;83.80;;;;;;5067662;28;20602;-66
2023/07/14 06:22:06;;;;;;;3.67;3.22;;;17.80;83.90;;;;;;5068581;28;20447;-66
2023/07/14 06:24:34;;;;;;;5.38;2.80;;;17.90;83.30;;;;;;5074676;28;20448;-66
2023/07/14 06:27:02;;;;;;;3.90;2.60;;;18.10;81.60;;;;;;5076242;28;20458;-66
2023/07/14 06:29:29;;;;;;;4.13;3.50;;;18.20;79.70;;;;;;5072227;28;20466;-66
2023/07/14 06:31:57;;;;;;;4.13;2.70;;;18.30;80.00;;;;;;5076316;28;20917;-66
2023/07/14 06:34:23;;;;;;;3.83;2.50;;;18.40;80.00;;;;;;5068127;28;20422;-66
2023/07/14 06:36:50;;;;;;;3.80;2.40;;;18.50;78.90;;;;;;5071238;28;20923;-67
2023/07/14 06:39:17;;;;;;;5.03;2.60;;;18.60;78.50;;;;;;5075187;28;20826;-66
2023/07/14 06:41:44;;;;;;;3.97;2.60;;;18.80;78.80;;;;;;5068070;28;20424;-66
2023/07/14 06:44:11;;;;;;;4.65;2.88;;;18.90;77.60;;;;;;5070542;28;20778;-67
2023/07/14 06:46:37;;;;;;;5.20;2.78;;;19.00;77.40;;;;;;5076223;28;20537;-66
2023/07/14 06:49:06;;;;;;;6.20;2.70;;;19.20;77.20;;;;;;5067374;28;20521;-66
2023/07/14 06:51:33;;;;;;;6.28;2.67;;;19.30;76.20;;;;;;5075829;28;21013;-66
2023/07/14 06:54:00;;;;;;;4.22;2.40;;;19.40;74.80;;;;;;5079309;28;20779;-66
2023/07/14 06:56:26;;;;;;;3.47;2.70;;;19.50;74.20;;;;;;5088067;28;20410;-67
2023/07/14 06:58:53;;;;;;;4.82;2.47;;;19.70;74.70;;;;;;5075613;28;21480;-67
2023/07/14 07:01:21;;;;;;;3.77;2.57;;;19.80;73.90;;;;;;5072110;28;20431;-67
2023/07/14 07:03:48;;;;;;;3.73;2.53;;;19.90;72.80;;;;;;5077186;28;20431;-67
2023/07/14 07:06:17;;;;;;;4.47;2.60;;;19.90;73.00;;;;;;5073954;28;20514;-67
2023/07/14 07:08:45;;;;;;;4.72;2.83;;;19.90;72.40;;;;;;5067288;28;20430;-67
2023/07/14 07:11:13;;;;;;;3.30;2.50;;;19.90;72.10;;;;;;5067951;28;20451;-67
2023/07/14 07:13:40;;;;;;;4.45;2.30;;;19.90;72.00;;;;;;5076644;28;20921;-67
2023/07/14 07:16:06;;;;;;;4.03;2.40;;;19.90;72.50;;;;;;5075550;28;20415;-67
2023/07/14 07:18:34;;;;;;;4.50;2.20;;;19.90;71.90;;;;;;5068571;28;20794;-66
2023/07/14 07:21:01;;;;;;;3.20;2.10;;;20.00;72.00;;;;;;5068020;28;20407;-66
2023/07/14 07:23:30;;;;;;;3.47;2.30;;;20.10;70.40;;;;;;5068266;28;20805;-66
2023/07/14 07:25:57;;;;;;;2.92;2.35;;;20.30;70.80;;;;;;5067745;28;20833;-66
2023/07/14 07:28:25;;;;;;;4.57;1.95;;;20.40;69.60;;;;;;5078476;28;20908;-67
2023/07/14 07:30:52;;;;;;;3.30;2.00;;;20.60;69.50;;;;;;5073303;28;20564;-67
2023/07/14 07:33:19;;;;;;;2.20;2.00;;;20.70;68.40;;;;;;5072470;28;20411;-66
2023/07/14 07:35:46;;;;;;;3.47;1.60;;;20.90;67.00;;;;;;5067674;28;20411;-67
2023/07/14 07:38:13;;;;;;;3.40;1.80;;;21.00;65.70;;;;;;5068561;28;20411;-66
2023/07/14 07:40:45;;;;;;;3.05;1.88;;;21.10;64.70;;;;;;5069265;28;20922;-67
2023/07/14 07:43:11;;;;;;;2.78;1.60;;;21.20;64.40;;;;;;5079001;28;20817;-66
2023/07/14 07:45:39;;;;;;;3.60;1.63;;;21.20;63.90;;;;;;5073942;28;20514;-66
2023/07/14 07:48:06;;;;;;;3.20;1.60;;;21.30;63.70;;;;;;5071070;28;20411;-66
2023/07/14 07:50:33;;;;;;;3.22;1.83;;;21.40;63.30;;;;;;5070673;28;20412;-67
2023/07/14 07:53:00;;;;;;;3.50;1.85;;;21.40;62.60;;;;;;5071209;28;20435;-67
2023/07/14 07:55:26;;;;;;;2.63;1.77;;;21.40;62.90;;;;;;5070626;28;20422;-66
2023/07/14 07:57:55;;;;;;;3.73;2.00;;;21.50;62.50;;;;;;5081337;28;20537;-66
2023/07/14 08:00:21;;;;;;;2.58;1.45;;;21.70;61.80;;;;;;5075421;28;20443;-66
2023/07/14 08:02:48;;;;;;;2.45;1.70;;;21.90;60.70;;;;;;5070864;28;20411;-66
2023/07/14 08:05:15;;;;;;;2.50;1.55;;;22.10;58.40;;;;;;5070825;28;20499;-66
2023/07/14 08:07:43;;;;;;;2.85;1.50;;;22.30;57.00;;;;;;5070637;28;20408;-66
2023/07/14 08:10:10;;;;;;;2.60;1.70;;;22.30;57.00;;;;;;5069879;28;20407;-66
2023/07/14 08:12:36;;;;;;;2.70;1.70;;;22.30;57.50;;;;;;5076616;28;20549;-65
2023/07/14 08:15:05;;;;;;;3.80;1.70;;;22.30;57.90;;;;;;5078438;28;20420;-66
2023/07/14 08:17:32;;;;;;;3.75;1.85;;;22.30;57.40;;;;;;5071059;28;20426;-66
2023/07/14 08:20:00;;;;;;;3.20;1.60;;;22.40;57.70;;;;;;5070149;28;20474;-66
2023/07/14 08:22:26;;;;;;;2.60;1.40;;;22.40;57.60;;;;;;5070418;28;20930;-67
2023/07/14 08:24:56;;;;;;;4.63;2.00;;;22.50;57.80;;;;;;5070050;28;20913;-66
2023/07/14 08:27:23;;;;;;;5.18;1.75;;;22.60;56.90;;;;;;5079435;28;20495;-66
2023/07/14 08:29:50;;;;;;;2.13;1.42;;;22.60;55.80;;;;;;5070944;28;20870;-66
2023/07/14 08:32:18;;;;;;;2.30;1.80;;;22.80;55.40;;;;;;5070384;28;20489;-66
2023/07/14 08:34:44;;;;;;;2.63;1.70;;;22.90;54.80;;;;;;5070672;28;20528;-66
2023/07/14 08:37:11;;;;;;;2.70;1.60;;;22.90;54.70;;;;;;5070405;28;20473;-67
2023/07/14 08:39:38;;;;;;;4.40;2.10;;;22.90;55.10;;;;;;5069203;28;20424;-66
2023/07/14 08:42:15;;;;;;;3.60;1.80;;;23.00;55.00;;;;;;5077633;28;20434;-66
2023/07/14 08:44:56;;;;;;;3.30;1.85;;;23.10;55.20;;;;;;5078468;28;20487;-67
2023/07/14 08:47:31;;;;;;;3.40;2.00;;;23.20;54.20;;;;;;5069787;28;20414;-66
2023/07/14 08:50:03;;;;;;;2.30;1.63;;;23.40;51.90;;;;;;5069360;28;20537;-66
2023/07/14 08:52:32;;;;;;;2.60;1.60;;;23.50;50.80;;;;;;5068569;28;20732;-67
2023/07/14 08:55:04;;;;;;;2.57;1.60;;;23.60;51.00;;;;;;5076087;28;20429;-67
2023/07/14 08:57:41;;;;;;;3.83;1.58;;;23.80;50.50;;;;;;5078582;28;20439;-67
2023/07/14 09:00:14;;;;;;;3.30;1.90;;;23.90;50.30;;;;;;5081621;28;20516;-67
2023/07/14 09:02:47;;;;;;;3.30;1.73;;;24.10;49.90;;;;;;5077034;28;20902;-67
2023/07/14 09:05:19;;;;;;;3.20;1.60;;;24.30;49.00;;;;;;5077836;28;20786;-67
2023/07/14 09:07:46;;;;;;;3.00;1.77;;;24.30;47.60;;;;;;5069735;28;20417;-67
2023/07/14 09:10:13;;;;;;;2.47;1.73;;;24.40;47.90;;;;;;5074559;28;20845;-67
2023/07/14 09:12:52;;;;;;;2.70;1.50;;;24.40;48.20;;;;;;5072065;28;20762;-66
2023/07/14 09:15:22;;;;;;;2.93;1.60;;;24.50;48.20;;;;;;5069024;28;20407;-67
2023/07/14 09:18:00;;;;;;;4.30;1.98;;;24.50;48.10;;;;;;5069357;28;20417;-67
2023/07/14 09:20:42;;;;;;;2.92;1.60;;;24.50;48.10;;;;;;5068945;28;20881;-66
2023/07/14 09:23:21;;;;;;;2.10;1.70;;;24.60;48.00;;;;;;5069430;28;20415;-66
2023/07/14 09:25:55;;;;;;;4.10;1.80;;;24.60;48.00;;;;;;5077897;28;20431;-68
2023/07/14 09:28:33;;;;;;;2.60;1.30;;;24.60;48.00;;;;;;5074142;28;20412;-66
2023/07/14 09:31:05;;;;;;;2.40;1.77;;;24.60;47.40;;;;;;5068826;28;20418;-66
2023/07/14 09:33:45;;;;;;;3.17;1.50;;;24.60;46.50;;;;;;5069279;28;20502;-66
2023/07/14 09:36:12;;;;;;;3.10;1.83;;;24.50;46.90;;;;;;5069432;28;20412;-67
2023/07/14 09:38:46;;;;;;;2.20;1.60;;;24.50;47.60;;;;;;5072084;28;20813;-69
2023/07/14 09:41:16;;;;;;;2.92;1.70;;;24.50;48.00;;;;;;5077434;28;20500;-68
2023/07/14 09:43:43;;;;;;;2.47;1.80;;;24.60;46.70;;;;;;5069228;28;20424;-68
2023/07/14 09:46:10;;;;;;;2.60;1.80;;;24.60;46.70;;;;;;5069082;28;20419;-68
2023/07/14 09:48:45;;;;;;;2.45;1.42;;;24.70;46.80;;;;;;5068454;28;20423;-68
2023/07/14 09:51:16;;;;;;;2.20;1.60;;;24.70;45.70;;;;;;5068919;28;20894;-68
2023/07/14 09:53:58;;;;;;;2.80;1.67;;;24.70;45.50;;;;;;5070215;28;20801;-68
2023/07/14 09:56:29;;;;;;;3.22;1.65;;;24.70;45.30;;;;;;5077250;28;20450;-68
2023/07/14 09:59:02;;;;;;;3.00;1.70;;;24.80;45.40;;;;;;5068443;28;20416;-68
2023/07/14 10:01:30;;;;;;;2.60;1.73;;;24.80;44.80;;;;;;5069177;28;20470;-68
2023/07/14 10:04:01;;;;;;;2.72;1.60;;;25.00;44.50;;;;;;5071883;28;20518;-68
2023/07/14 10:06:30;;;;;;;3.08;1.67;;;25.20;44.50;;;;;;5076988;28;20415;-68
2023/07/14 10:08:58;;;;;;;3.20;1.80;;;25.30;44.70;;;;;;5070715;28;20437;-68
2023/07/14 10:11:27;;;;;;;4.85;2.00;;;25.50;43.50;;;;;;5080674;28;20433;-68
2023/07/14 10:13:59;;;;;;;2.40;1.50;;;25.60;42.90;;;;;;5069167;28;20920;-68
2023/07/14 10:16:27;;;;;;;4.50;1.73;;;25.80;43.00;;;;;;5068722;28;20411;-68
2023/07/14 10:18:58;;;;;;;2.72;1.60;;;25.90;41.90;;;;;;5075724;28;20776;-68
2023/07/14 10:21:28;;;;;;;2.67;1.48;;;26.00;41.30;;;;;;5076648;28;20779;-68
2023/07/14 10:23:58;;;;;;;2.78;1.60;;;26.00;41.60;;;;;;5073347;28;20427;-68
2023/07/14 10:26:28;;;;;;;3.17;1.40;;;26.10;41.30;;;;;;5078228;28;20422;-67
2023/07/14 10:28:56;;;;;;;2.60;1.60;;;26.30;40.20;;;;;;5076430;28;20755;-68
2023/07/14 10:31:30;;;;;;;3.40;1.50;;;26.60;39.80;;;;;;5068632;28;20416;-68
2023/07/14 10:34:25;;;;;;;3.13;1.58;;;26.60;39.30;;;;;;5072247;28;20769;-68
2023/07/14 10:36:56;;;;;;;2.10;1.50;;;26.70;39.90;;;;;;5088117;28;20432;-68
2023/07/14 10:39:32;;;;;;;2.78;1.60;;;26.80;38.00;;;;;;5079589;28;20423;-68
2023/07/14 10:41:59;;;;;;;1.90;1.60;;;26.60;37.10;;;;;;5080259;28;20503;-68
2023/07/14 10:44:29;;;;;;;3.40;1.60;;;26.40;37.80;;;;;;5088104;28;20784;-68
2023/07/14 10:47:00;;;;;;;2.00;1.50;;;26.10;37.80;;;;;;5088451;28;20809;-68
2023/07/14 10:49:33;;;;;;;1.88;1.55;;;26.00;37.70;;;;;;5087148;28;20461;-68
2023/07/14 10:52:05;;;;;;;2.22;1.50;;;26.00;37.90;;;;;;5076511;28;20422;-68
2023/07/14 10:54:43;;;;;;;2.93;1.60;;;26.10;37.90;;;;;;5069253;28;20427;-68
2023/07/14 10:57:24;;;;;;;2.35;1.90;;;26.20;37.80;;;;;;5081801;28;20406;-68
2023/07/14 10:59:57;;;;;;;3.30;1.98;;;26.30;37.40;;;;;;5087613;28;20406;-68
2023/07/14 11:02:33;;;;;;;3.25;1.90;;;26.60;35.30;;;;;;5088332;28;20414;-68
2023/07/14 11:05:03;;;;;;;2.70;2.00;;;26.80;34.40;;;;;;5088277;28;20421;-68
2023/07/14 11:07:32;;;;;;;2.75;1.80;;;27.10;33.90;;;;;;5078597;28;20465;-68
2023/07/14 11:10:00;;;;;;;3.10;1.70;;;27.30;33.10;;;;;;5078782;28;20763;-68
2023/07/14 11:12:35;;;;;;;2.40;1.67;;;27.50;32.70;;;;;;5088183;28;20492;-68
2023/07/14 11:15:16;;;;;;;3.15;1.70;;;27.70;32.70;;;;;;5088063;28;20413;-68
2023/07/14 11:17:54;;;;;;;2.80;1.77;;;27.90;31.90;;;;;;5092355;28;20424;-69
2023/07/14 11:20:29;;;;;;;2.80;1.75;;;28.20;31.70;;;;;;5087928;22;20466;-68
2023/07/14 11:23:20;;;;;;;2.80;1.80;;;28.40;30.90;;;;;;5072225;28;20435;-67
2023/07/14 11:25:52;;;;;;;2.90;1.83;;;28.60;29.90;;;;;;5069433;28;20431;-68
2023/07/14 11:28:33;;;;;;;3.20;1.85;;;28.50;30.20;;;;;;5071984;28;20415;-67
2023/07/14 11:31:03;;;;;;;3.37;2.13;;;28.70;30.00;;;;;;5071950;28;20408;-69
2023/07/14 11:33:49;;;;;;;3.55;1.77;;;28.80;29.30;;;;;;5072497;28;20418;-69
2023/07/14 11:36:23;;;;;;;2.83;1.90;;;28.70;29.20;;;;;;5072906;28;20447;-67
2023/07/14 11:38:57;;;;;;;2.58;1.70;;;28.60;29.70;;;;;;5070337;28;20428;-68
2023/07/14 11:41:26;;;;;;;3.22;1.90;;;28.40;29.80;;;;;;5072447;28;20439;-70
2023/07/14 11:43:54;;;;;;;2.53;2.10;;;28.50;30.40;;;;;;5072684;28;20840;-68
2023/07/14 11:46:23;;;;;;;2.28;1.70;;;28.80;29.60;;;;;;5073215;28;20766;-69
2023/07/14 11:49:04;;;;;;;2.45;1.70;;;29.20;29.80;;;;;;5072403;28;20901;-69
2023/07/14 11:51:57;;;;;;;2.43;1.73;;;29.70;31.00;;;;;;5072731;28;20407;-69
2023/07/14 11:54:26;;;;;;;3.33;1.60;;;29.80;30.60;;;;;;5054059;28;20512;-70
2023/07/14 11:57:01;;;;;;;2.00;1.60;;;29.80;31.10;;;;;;5072401;28;20443;-67
2023/07/14 11:59:30;;;;;;;4.90;1.88;;;29.80;30.70;;;;;;5067403;28;20443;-68
2023/07/14 12:02:16;;;;;;;2.10;1.50;;;29.80;29.50;;;;;;5071573;28;20932;-67
2023/07/14 12:04:59;;;;;;;1.73;1.60;;;29.70;29.60;;;;;;5070894;28;20513;-68
2023/07/14 12:07:27;;;;;;;2.13;1.80;;;29.70;29.80;;;;;;5071293;28;20442;-69
2023/07/14 12:10:08;;;;;;;2.72;1.60;;;29.50;29.90;;;;;;5070678;28;20514;-69
2023/07/14 12:12:35;;;;;;;3.05;1.88;;;29.50;30.10;;;;;;5071670;28;20423;-69
2023/07/14 12:15:03;;;;;;;2.75;1.65;;;29.70;29.60;;;;;;5071606;28;20411;-69
2023/07/14 12:17:48;;;;;;;2.70;1.70;;;30.00;29.70;;;;;;5071777;28;20419;-68
2023/07/14 12:20:25;;;;;;;2.50;1.73;;;30.40;28.80;;;;;;5069048;28;20431;-69
2023/07/14 12:23:16;;;;;;;1.67;1.58;;;30.70;29.10;;;;;;5070289;28;20450;-68
2023/07/14 12:25:49;;;;;;;1.98;1.60;;;30.90;29.10;;;;;;5071097;28;20478;-68
2023/07/14 12:28:19;;;;;;;2.20;1.50;;;31.00;28.00;;;;;;5071368;28;20419;-67
2023/07/14 12:30:51;;;;;;;2.22;1.60;;;30.80;28.80;;;;;;5070700;28;20404;-70
2023/07/14 12:33:21;;;;;;;2.08;1.40;;;30.90;29.10;;;;;;5070431;28;20432;-67
2023/07/14 12:35:49;;;;;;;2.00;1.52;;;30.60;28.90;;;;;;5070621;28;20422;-69
2023/07/14 12:38:19;;;;;;;1.80;1.55;;;30.40;29.00;;;;;;5070713;28;20897;-68
2023/07/14 12:40:49;;;;;;;1.67;1.55;;;30.20;29.50;;;;;;5070519;28;20431;-68
2023/07/14 12:43:26;;;;;;;3.00;1.80;;;30.10;30.00;;;;;;5071916;28;20431;-68
2023/07/14 12:45:55;;;;;;;2.78;1.70;;;30.30;29.30;;;;;;5071547;28;20411;-69
2023/07/14 12:48:27;;;;;;;2.27;1.60;;;30.60;28.90;;;;;;5071263;28;20874;-68
2023/07/14 12:50:54;;;;;;;2.50;1.65;;;30.70;28.10;;;;;;5068754;28;20432;-70
2023/07/14 12:53:22;;;;;;;2.58;1.60;;;30.70;28.30;;;;;;5070167;28;20455;-68
2023/07/14 12:55:49;;;;;;;2.30;1.60;;;30.80;28.00;;;;;;5071381;28;20419;-68
2023/07/14 12:58:19;;;;;;;2.47;1.60;;;31.10;28.10;;;;;;5071235;28;20817;-67
2023/07/14 13:00:46;;;;;;;1.90;1.40;;;30.70;27.40;;;;;;5070241;28;20419;-69
2023/07/14 13:03:15;;;;;;;3.22;1.50;;;30.50;27.90;;;;;;5071790;28;20444;-69
2023/07/14 13:05:45;;;;;;;2.03;1.35;;;30.40;28.40;;;;;;5071774;28;20418;-69